Time;durP1;ratioP1;P1;durP2;ratioP2;P2;SDS_P1;SDS_P2;PMS_P1;PMS_P2;Temp;Humidity;BMP_temperature;BMP_pressure;BME280_temperature;BME280_humidity;BME280_pressure;Samples;Min_cycle;Max_cycle;Signal;HPM_P1;HPM_P2
2021/07/15 00:03:07;;;;;;;12.23;11.02;;;22.70;75.80;;;;;;10442309;28;20120;-55
2021/07/15 00:08:09;;;;;;;12.35;10.43;;;22.70;75.80;;;;;;10459495;28;20025;-56
2021/07/15 00:13:10;;;;;;;11.75;10.65;;;22.70;75.80;;;;;;10459864;28;20032;-56
2021/07/15 00:18:12;;;;;;;12.13;10.50;;;22.70;75.80;;;;;;10459130;28;20029;-55
2021/07/15 00:23:14;;;;;;;11.90;10.73;;;22.70;75.90;;;;;;10461117;28;20534;-54
2021/07/15 00:28:15;;;;;;;11.77;10.57;;;22.60;75.90;;;;;;10458720;28;20036;-56
2021/07/15 00:33:16;;;;;;;12.05;10.85;;;22.60;75.70;;;;;;10466925;28;20040;-56
2021/07/15 00:38:17;;;;;;;11.95;10.13;;;22.60;75.80;;;;;;10458313;28;20404;-56
2021/07/15 00:43:18;;;;;;;11.63;10.45;;;22.60;75.80;;;;;;10458140;28;20044;-56
2021/07/15 00:48:19;;;;;;;11.95;10.75;;;22.60;75.80;;;;;;10457684;28;20474;-56
2021/07/15 00:53:20;;;;;;;12.20;11.00;;;22.60;75.70;;;;;;10440136;28;20037;-55
2021/07/15 00:58:21;;;;;;;11.18;10.18;;;22.60;75.80;;;;;;10457474;28;20037;-55
2021/07/15 01:03:23;;;;;;;11.25;9.50;;;22.60;75.80;;;;;;10453501;28;20037;-56
2021/07/15 01:08:24;;;;;;;11.43;10.35;;;22.60;75.70;;;;;;10455701;28;20055;-55
2021/07/15 01:13:48;;;;;;;11.43;10.25;;;22.60;75.90;;;;;;10454544;28;20041;-55
2021/07/15 01:19:13;;;;;;;11.98;10.88;;;22.60;75.70;;;;;;10431959;28;20041;-54
2021/07/15 01:24:45;;;;;;;11.82;10.63;;;22.60;75.80;;;;;;10448457;28;20045;-55
2021/07/15 01:30:09;;;;;;;11.80;10.52;;;22.60;75.70;;;;;;10437000;28;20383;-55
2021/07/15 01:35:13;;;;;;;11.27;10.18;;;22.60;75.80;;;;;;10438040;28;20033;-55
2021/07/15 01:40:16;;;;;;;12.07;10.95;;;22.60;75.70;;;;;;10452185;28;20095;-55
2021/07/15 01:45:17;;;;;;;11.02;9.93;;;22.60;75.90;;;;;;10452066;28;20037;-55
2021/07/15 01:50:18;;;;;;;11.38;10.27;;;22.60;75.80;;;;;;10453444;28;20041;-56
2021/07/15 01:55:20;;;;;;;10.75;9.73;;;22.60;75.80;;;;;;10439632;28;20048;-55
2021/07/15 02:00:22;;;;;;;10.82;9.82;;;22.60;75.80;;;;;;10453248;28;20037;-55
2021/07/15 02:05:24;;;;;;;10.65;9.65;;;22.60;75.60;;;;;;10452538;28;20041;-56
2021/07/15 02:10:26;;;;;;;10.32;9.32;;;22.50;75.60;;;;;;10452743;28;20099;-55
2021/07/15 02:15:28;;;;;;;11.82;10.60;;;22.60;75.70;;;;;;10452851;28;20043;-55
2021/07/15 02:20:31;;;;;;;12.07;10.63;;;22.50;75.70;;;;;;10459631;28;20025;-55
2021/07/15 02:25:33;;;;;;;11.55;10.45;;;22.60;75.80;;;;;;10447363;28;20033;-55
2021/07/15 02:30:34;;;;;;;12.05;10.80;;;22.50;75.60;;;;;;10444303;28;20071;-55
2021/07/15 02:35:40;;;;;;;11.45;10.35;;;22.50;75.70;;;;;;10454583;28;20056;-55
2021/07/15 02:40:43;;;;;;;11.23;10.13;;;22.50;75.60;;;;;;10449463;28;20405;-55
2021/07/15 02:45:43;;;;;;;12.02;9.93;;;22.50;75.60;;;;;;10439951;28;20083;-55
2021/07/15 02:50:45;;;;;;;11.07;10.07;;;22.50;75.60;;;;;;10462672;28;20400;-56
2021/07/15 02:55:52;;;;;;;11.60;10.50;;;22.50;75.70;;;;;;10462355;28;20041;-55
2021/07/15 03:00:59;;;;;;;10.82;9.82;;;22.50;75.60;;;;;;10458980;28;20040;-55
2021/07/15 03:06:17;;;;;;;12.27;10.98;;;22.50;75.60;;;;;;10444455;28;20039;-55
2021/07/15 03:11:19;;;;;;;11.27;10.18;;;22.50;75.60;;;;;;10462068;28;20426;-55
2021/07/15 03:16:20;;;;;;;9.80;8.80;;;22.50;75.60;;;;;;10452922;28;20037;-55
2021/07/15 03:21:24;;;;;;;10.02;9.02;;;22.50;75.50;;;;;;10444178;28;20492;-55
2021/07/15 03:26:26;;;;;;;11.55;10.40;;;22.50;75.60;;;;;;10443745;28;20029;-55
2021/07/15 03:31:28;;;;;;;11.55;10.45;;;22.50;75.60;;;;;;10458942;28;20381;-56
2021/07/15 03:36:32;;;;;;;10.65;9.65;;;22.50;75.50;;;;;;10460914;28;20068;-55
2021/07/15 03:41:34;;;;;;;9.77;8.77;;;22.50;75.50;;;;;;10460560;28;20416;-55
2021/07/15 03:46:35;;;;;;;10.70;9.68;;;22.50;75.40;;;;;;10448836;28;20037;-55
2021/07/15 03:51:37;;;;;;;10.38;9.43;;;22.50;75.60;;;;;;10459586;28;20037;-55
2021/07/15 03:56:43;;;;;;;10.40;9.50;;;22.50;75.60;;;;;;10458003;28;20091;-56
2021/07/15 04:01:48;;;;;;;10.52;9.43;;;22.50;75.50;;;;;;10456359;28;20041;-55
2021/07/15 04:06:50;;;;;;;10.43;9.43;;;22.50;75.50;;;;;;10418134;28;20351;-53
2021/07/15 04:11:52;;;;;;;9.65;8.73;;;22.50;75.40;;;;;;10423575;28;20045;-54
2021/07/15 04:17:06;;;;;;;10.05;9.15;;;22.40;75.40;;;;;;10421089;28;20039;-55
2021/07/15 04:22:11;;;;;;;9.40;8.50;;;22.50;75.50;;;;;;10453399;28;20040;-55
2021/07/15 04:27:13;;;;;;;10.00;9.10;;;22.40;75.50;;;;;;10448370;28;20556;-55
2021/07/15 04:32:26;;;;;;;9.43;8.52;;;22.40;75.40;;;;;;10434345;28;20076;-55
2021/07/15 04:37:27;;;;;;;9.82;8.90;;;22.40;75.30;;;;;;10433702;28;20531;-54
2021/07/15 04:42:28;;;;;;;9.60;8.55;;;22.40;75.40;;;;;;10434417;28;20033;-55
2021/07/15 04:47:31;;;;;;;9.90;8.95;;;22.40;75.30;;;;;;10444190;28;20101;-55
2021/07/15 04:52:34;;;;;;;8.85;7.95;;;22.40;75.30;;;;;;10433575;28;20398;-53
2021/07/15 04:57:37;;;;;;;9.02;8.20;;;22.40;75.40;;;;;;10433387;28;20044;-53
2021/07/15 05:02:39;;;;;;;9.07;7.50;;;22.40;75.30;;;;;;10443913;28;20383;-55
2021/07/15 05:07:41;;;;;;;9.10;8.18;;;22.40;75.30;;;;;;10456587;28;20049;-55
2021/07/15 05:12:41;;;;;;;9.02;7.88;;;22.40;75.30;;;;;;10457085;28;20631;-55
2021/07/15 05:17:42;;;;;;;10.82;8.15;;;22.40;75.30;;;;;;10456489;28;20106;-55
2021/07/15 05:22:43;;;;;;;9.73;8.05;;;22.50;76.00;;;;;;10462186;28;20024;-56
2021/07/15 05:27:43;;;;;;;10.32;7.47;;;22.50;76.00;;;;;;10456415;28;20060;-56
2021/07/15 05:32:44;;;;;;;8.77;7.88;;;22.50;75.90;;;;;;10455195;28;20036;-55
2021/07/15 05:37:45;;;;;;;9.18;8.23;;;22.50;76.20;;;;;;10454655;28;20045;-54
2021/07/15 05:42:45;;;;;;;9.30;8.38;;;22.60;76.00;;;;;;10454746;28;20048;-53
2021/07/15 05:47:46;;;;;;;10.32;7.57;;;22.60;76.30;;;;;;10455865;28;20366;-53
2021/07/15 05:52:47;;;;;;;17.38;9.27;;;22.60;76.40;;;;;;10454914;28;20458;-53
2021/07/15 05:57:47;;;;;;;13.07;8.68;;;22.60;76.20;;;;;;10454790;28;20100;-48
2021/07/15 06:02:48;;;;;;;11.98;8.55;;;22.60;76.00;;;;;;10455217;28;20128;-49
2021/07/15 06:07:54;;;;;;;12.95;8.73;;;22.50;75.80;;;;;;10455813;28;20076;-48
2021/07/15 06:12:54;;;;;;;11.07;7.82;;;22.50;75.90;;;;;;10455070;28;20025;-49
2021/07/15 06:17:55;;;;;;;14.25;8.20;;;22.50;76.00;;;;;;10455257;28;20041;-56
2021/07/15 06:22:56;;;;;;;11.40;7.75;;;22.50;75.90;;;;;;10447079;28;20071;-56
2021/07/15 06:27:57;;;;;;;12.32;8.93;;;22.50;76.30;;;;;;10435571;28;20025;-56
2021/07/15 06:32:58;;;;;;;9.63;7.95;;;22.50;75.50;;;;;;10450912;28;20028;-56
2021/07/15 06:37:59;;;;;;;9.65;7.88;;;22.50;75.40;;;;;;10462149;28;20045;-57
2021/07/15 06:43:00;;;;;;;13.85;8.75;;;22.50;75.40;;;;;;10461303;28;20115;-56
2021/07/15 06:48:00;;;;;;;12.57;8.10;;;22.50;75.30;;;;;;10463157;28;20472;-56
2021/07/15 06:53:02;;;;;;;12.10;9.00;;;22.50;75.20;;;;;;10459299;28;20123;-56
2021/07/15 06:58:03;;;;;;;10.30;7.57;;;22.50;75.10;;;;;;10462448;28;20033;-57
2021/07/15 07:03:04;;;;;;;10.43;8.25;;;22.40;75.60;;;;;;10462228;28;20029;-56
2021/07/15 07:08:06;;;;;;;10.93;8.18;;;22.50;75.00;;;;;;10462157;28;20029;-56
2021/07/15 07:13:06;;;;;;;9.35;8.40;;;22.40;75.00;;;;;;10461086;28;20064;-56
2021/07/15 07:18:07;;;;;;;9.60;8.07;;;22.50;75.10;;;;;;10461262;28;20116;-55
2021/07/15 07:23:13;;;;;;;8.98;6.97;;;22.40;75.00;;;;;;10468791;28;20029;-56
2021/07/15 07:28:14;;;;;;;8.60;7.20;;;22.40;74.90;;;;;;10431555;28;20104;-56
2021/07/15 07:33:14;;;;;;;8.90;7.88;;;22.40;74.90;;;;;;10460352;28;20040;-56
2021/07/15 07:38:15;;;;;;;10.82;8.75;;;22.40;74.90;;;;;;10460978;28;20073;-56
2021/07/15 07:43:15;;;;;;;8.93;6.75;;;22.40;75.00;;;;;;10460533;28;20477;-57
2021/07/15 07:48:16;;;;;;;9.15;7.50;;;22.40;74.80;;;;;;10459076;28;20052;-56
2021/07/15 07:53:17;;;;;;;9.05;7.00;;;22.40;74.80;;;;;;10445624;28;20104;-56
2021/07/15 07:58:17;;;;;;;7.90;7.18;;;22.40;74.80;;;;;;10460710;28;20070;-57
2021/07/15 08:03:18;;;;;;;9.55;7.47;;;22.40;74.70;;;;;;10441725;28;20036;-57
2021/07/15 08:08:21;;;;;;;8.45;7.20;;;22.40;74.70;;;;;;10442285;28;20108;-57
2021/07/15 08:13:21;;;;;;;8.90;7.93;;;22.40;74.70;;;;;;10459633;28;20086;-56
2021/07/15 08:18:23;;;;;;;7.32;6.43;;;22.40;74.70;;;;;;10459236;28;20489;-56
2021/07/15 08:23:23;;;;;;;8.55;6.82;;;22.40;74.60;;;;;;10466346;28;20028;-56
2021/07/15 08:28:24;;;;;;;8.30;7.47;;;22.40;74.70;;;;;;10458985;28;20338;-56
2021/07/15 08:33:25;;;;;;;8.02;6.63;;;22.40;74.70;;;;;;10458885;28;20108;-56
2021/07/15 08:38:26;;;;;;;9.73;7.80;;;22.40;74.80;;;;;;10458086;28;20064;-56
2021/07/15 08:43:27;;;;;;;8.23;7.35;;;22.40;74.60;;;;;;10457640;28;20351;-56
2021/07/15 08:48:29;;;;;;;8.18;6.97;;;22.40;74.60;;;;;;10443102;28;20033;-56
2021/07/15 08:53:31;;;;;;;8.65;7.32;;;22.40;74.60;;;;;;10440222;28;20028;-56
2021/07/15 08:58:32;;;;;;;8.55;7.07;;;22.40;74.80;;;;;;10440348;28;20028;-56
2021/07/15 09:03:34;;;;;;;9.35;7.32;;;22.30;74.90;;;;;;10457414;28;20033;-56
2021/07/15 09:08:35;;;;;;;9.98;7.30;;;22.30;74.60;;;;;;10456248;28;20025;-56
2021/07/15 09:13:35;;;;;;;7.82;7.03;;;22.30;74.90;;;;;;10455198;28;20025;-56
2021/07/15 09:18:57;;;;;;;12.23;7.53;;;22.30;74.80;;;;;;10455815;28;20112;-57
2021/07/15 09:23:59;;;;;;;10.82;7.50;;;22.30;74.70;;;;;;10455539;28;20427;-56
2021/07/15 09:29:16;;;;;;;8.23;7.43;;;22.30;74.60;;;;;;10454907;28;20052;-57
2021/07/15 09:34:17;;;;;;;9.23;7.80;;;22.30;74.50;;;;;;10453640;28;20064;-57
2021/07/15 09:39:26;;;;;;;8.88;7.55;;;22.30;74.60;;;;;;10455004;28;20124;-57
2021/07/15 09:44:29;;;;;;;;;;;22.30;74.50;;;;;;10435940;28;20029;-57
2021/07/15 09:49:32;;;;;;;9.70;7.93;;;22.30;74.50;;;;;;10454392;28;19909;-57
2021/07/15 09:54:33;;;;;;;8.90;7.15;;;22.30;74.70;;;;;;10453598;28;20029;-56
2021/07/15 09:59:50;;;;;;;8.90;7.63;;;22.30;74.50;;;;;;10454281;28;20448;-56
2021/07/15 10:04:51;;;;;;;9.05;7.80;;;22.30;74.50;;;;;;10454002;28;20543;-56
2021/07/15 10:10:19;;;;;;;8.93;7.20;;;22.30;74.70;;;;;;10454697;28;20501;-56
2021/07/15 10:15:19;;;;;;;7.50;6.63;;;22.30;74.60;;;;;;10453249;28;20033;-56
2021/07/15 10:20:21;;;;;;;8.38;6.80;;;22.30;74.60;;;;;;10454725;28;20025;-56
2021/07/15 10:25:22;;;;;;;7.60;6.88;;;22.30;74.70;;;;;;10454588;28;20036;-55
2021/07/15 10:30:23;;;;;;;6.85;6.15;;;22.30;74.70;;;;;;10453404;28;20032;-56
2021/07/15 10:35:26;;;;;;;7.35;6.55;;;22.30;74.70;;;;;;10454080;28;20036;-56
2021/07/15 10:40:27;;;;;;;8.40;5.95;;;22.30;74.80;;;;;;10435050;28;20505;-54
2021/07/15 10:45:28;;;;;;;9.05;7.03;;;22.30;74.80;;;;;;10440786;28;20029;-56
2021/07/15 10:50:29;;;;;;;8.75;7.00;;;22.30;74.80;;;;;;10436822;28;20801;-56
2021/07/15 10:55:29;;;;;;;8.75;6.82;;;22.30;74.70;;;;;;10436674;28;20028;-55
2021/07/15 11:00:31;;;;;;;9.23;6.50;;;22.30;75.10;;;;;;10410131;28;20022;-56
2021/07/15 11:05:31;;;;;;;8.23;7.40;;;22.30;74.90;;;;;;10455702;28;20373;-56
2021/07/15 11:10:34;;;;;;;8.10;6.55;;;22.30;75.10;;;;;;10428024;28;20024;-57
2021/07/15 11:15:55;;;;;;;6.25;5.55;;;22.30;75.10;;;;;;10461914;28;20488;-56
2021/07/15 11:21:30;;;;;;;10.88;6.65;;;22.30;74.80;;;;;;10473720;28;20457;-54
2021/07/15 11:26:34;;;;;;;6.88;6.07;;;22.30;74.80;;;;;;10459019;28;20037;-55
2021/07/15 11:31:43;;;;;;;6.85;6.05;;;22.30;75.40;;;;;;10460227;28;20025;-55
2021/07/15 11:36:43;;;;;;;7.45;6.53;;;22.30;75.30;;;;;;10458480;28;20028;-56
2021/07/15 11:41:49;;;;;;;8.68;7.47;;;22.30;75.40;;;;;;10442090;28;20041;-56
2021/07/15 11:46:50;;;;;;;8.75;7.45;;;22.30;75.30;;;;;;10459765;28;20025;-56
2021/07/15 11:51:55;;;;;;;8.60;6.18;;;22.30;75.40;;;;;;10459552;28;20453;-55
2021/07/15 11:57:14;;;;;;;8.65;6.55;;;22.30;75.40;;;;;;10459946;28;20065;-55
2021/07/15 12:02:37;;;;;;;8.05;6.50;;;22.30;75.40;;;;;;10459870;28;20572;-55
2021/07/15 12:07:49;;;;;;;9.85;6.80;;;22.30;75.30;;;;;;10458124;28;20020;-55
2021/07/15 12:12:52;;;;;;;8.85;6.57;;;22.30;75.30;;;;;;10456438;28;20508;-55
2021/07/15 12:17:57;;;;;;;8.63;5.70;;;22.30;75.30;;;;;;10457721;28;20037;-54
2021/07/15 12:22:58;;;;;;;8.05;6.28;;;22.30;75.80;;;;;;10454350;28;20112;-55
2021/07/15 12:28:05;;;;;;;8.43;6.50;;;22.30;75.20;;;;;;10458980;28;20104;-54
2021/07/15 12:33:06;;;;;;;6.78;6.10;;;22.30;75.20;;;;;;10458645;28;20029;-54
2021/07/15 12:38:22;;;;;;;7.47;6.72;;;22.30;75.20;;;;;;10440704;28;20029;-54
2021/07/15 12:43:23;;;;;;;6.55;5.97;;;22.30;75.30;;;;;;10440489;28;20432;-54
2021/07/15 12:48:24;;;;;;;7.00;6.40;;;22.30;75.20;;;;;;10458237;28;20111;-54
2021/07/15 12:53:28;;;;;;;7.13;6.20;;;22.30;75.30;;;;;;10458382;28;20109;-54
2021/07/15 12:58:29;;;;;;;7.35;6.55;;;22.30;75.30;;;;;;10457440;28;20447;-54
2021/07/15 13:03:31;;;;;;;7.78;6.88;;;22.30;75.30;;;;;;10457490;28;20060;-54
2021/07/15 13:08:49;;;;;;;7.45;6.07;;;22.30;75.20;;;;;;10457361;28;20115;-54
2021/07/15 13:19:17;;;;;;;7.82;6.28;;;22.30;75.20;;;;;;10457727;28;20041;-55
2021/07/15 13:24:26;;;;;;;7.63;6.65;;;22.30;75.30;;;;;;10462833;28;20112;-54
2021/07/15 13:29:32;;;;;;;7.95;6.43;;;22.30;75.20;;;;;;10456672;28;20025;-54
2021/07/15 13:34:33;;;;;;;7.82;6.78;;;22.30;75.20;;;;;;10456225;28;20129;-53
2021/07/15 13:39:48;;;;;;;7.63;6.45;;;22.30;75.30;;;;;;10456539;28;20060;-54
2021/07/15 13:44:56;;;;;;;7.00;6.30;;;22.30;75.20;;;;;;10456133;28;20488;-54
2021/07/15 13:50:08;;;;;;;8.40;6.72;;;22.30;75.20;;;;;;10456059;28;20071;-55
2021/07/15 13:55:13;;;;;;;7.90;6.13;;;22.20;75.20;;;;;;10456099;28;20061;-54
2021/07/15 14:00:17;;;;;;;7.25;6.30;;;22.20;75.10;;;;;;10455776;28;20414;-55
2021/07/15 14:05:38;;;;;;;7.60;6.45;;;22.20;75.10;;;;;;10455829;28;20096;-53
2021/07/15 14:10:40;;;;;;;7.65;5.63;;;22.20;75.10;;;;;;10438848;28;20035;-54
2021/07/15 14:15:44;;;;;;;6.07;5.45;;;22.20;75.00;;;;;;10455491;28;20028;-55
2021/07/15 14:20:51;;;;;;;7.03;6.00;;;22.20;75.00;;;;;;10462921;28;20500;-54
2021/07/15 14:25:59;;;;;;;6.35;5.68;;;22.20;75.10;;;;;;10454037;28;20040;-55
2021/07/15 14:31:01;;;;;;;6.90;5.67;;;22.20;75.00;;;;;;10443281;28;20033;-54
2021/07/15 14:36:02;;;;;;;5.95;5.35;;;22.20;75.00;;;;;;10437519;28;20033;-54
2021/07/15 14:41:02;;;;;;;7.47;5.85;;;22.20;75.10;;;;;;10456952;28;20045;-55
2021/07/15 14:46:03;;;;;;;6.03;5.45;;;22.20;75.00;;;;;;10463208;28;20508;-55
2021/07/15 14:51:04;;;;;;;7.15;6.45;;;22.20;75.10;;;;;;10463065;28;20116;-55
2021/07/15 14:56:05;;;;;;;7.97;5.72;;;22.20;75.00;;;;;;10436884;28;20040;-55
2021/07/15 15:01:06;;;;;;;6.82;5.85;;;22.20;74.90;;;;;;10462384;28;20527;-54
2021/07/15 15:06:06;;;;;;;7.38;6.40;;;22.20;74.90;;;;;;10462220;28;20032;-54
2021/07/15 15:11:07;;;;;;;7.63;6.13;;;22.20;75.10;;;;;;10461683;28;20494;-53
2021/07/15 15:16:08;;;;;;;7.00;6.20;;;22.20;74.90;;;;;;10461253;28;20072;-53
2021/07/15 15:21:09;;;;;;;7.38;5.60;;;22.20;74.90;;;;;;10468762;28;20060;-55
2021/07/15 15:26:11;;;;;;;6.38;5.78;;;22.20;74.90;;;;;;10460879;28;20037;-53
2021/07/15 15:31:11;;;;;;;7.15;6.45;;;22.20;74.80;;;;;;10460417;28;20473;-53
2021/07/15 15:36:12;;;;;;;8.80;6.20;;;22.20;75.90;;;;;;10460936;28;20079;-55
2021/07/15 15:41:13;;;;;;;6.88;5.85;;;22.20;75.40;;;;;;10459590;28;20405;-55
2021/07/15 15:46:14;;;;;;;6.25;5.65;;;22.20;75.40;;;;;;10459443;28;20033;-54
2021/07/15 15:51:15;;;;;;;6.18;5.28;;;22.20;75.00;;;;;;10459727;28;20118;-55
2021/07/15 15:56:16;;;;;;;6.28;5.30;;;22.20;74.90;;;;;;10459661;28;20443;-56
2021/07/15 16:01:17;;;;;;;7.93;6.03;;;22.20;74.80;;;;;;10460057;28;20052;-56
2021/07/15 16:06:18;;;;;;;8.10;6.35;;;22.10;74.70;;;;;;10459920;28;20068;-58
2021/07/15 16:11:18;;;;;;;9.40;6.15;;;22.20;75.40;;;;;;10442357;28;20056;-53
2021/07/15 16:16:19;;;;;;;15.68;6.97;;;22.20;75.30;;;;;;10422916;28;20037;-55
2021/07/15 16:21:21;;;;;;;10.13;5.78;;;22.20;76.70;;;;;;10466158;28;20037;-56
2021/07/15 16:26:21;;;;;;;9.20;5.78;;;22.20;76.80;;;;;;10440739;28;20111;-55
2021/07/15 16:31:22;;;;;;;11.90;6.43;;;22.30;77.10;;;;;;10458599;28;20555;-56
2021/07/15 16:36:23;;;;;;;10.02;6.25;;;22.30;76.80;;;;;;10458379;28;20043;-56
2021/07/15 16:41:23;;;;;;;10.75;6.68;;;22.30;76.70;;;;;;10458324;28;20481;-56
2021/07/15 16:46:24;;;;;;;11.32;6.60;;;22.30;76.80;;;;;;10458030;28;20104;-53
2021/07/15 16:51:26;;;;;;;16.27;6.78;;;22.30;76.60;;;;;;10439894;28;20036;-55
2021/07/15 16:56:26;;;;;;;9.93;6.63;;;22.30;76.70;;;;;;10457772;28;20413;-55
2021/07/15 17:01:27;;;;;;;10.90;6.40;;;22.30;76.80;;;;;;10457117;28;20065;-54
2021/07/15 17:06:28;;;;;;;11.18;6.65;;;22.30;76.40;;;;;;10456731;28;20468;-53
2021/07/15 17:11:29;;;;;;;13.85;7.18;;;22.30;76.10;;;;;;10456865;28;20091;-54
2021/07/15 17:16:30;;;;;;;11.90;7.00;;;22.30;76.30;;;;;;10456634;28;20036;-53
2021/07/15 17:21:31;;;;;;;14.05;6.82;;;22.30;76.10;;;;;;10464303;28;20037;-53
2021/07/15 17:26:32;;;;;;;8.43;5.90;;;22.30;76.00;;;;;;10438721;28;20120;-53
2021/07/15 17:31:37;;;;;;;11.73;6.10;;;22.20;75.90;;;;;;10456462;28;20040;-54
2021/07/15 17:36:38;;;;;;;8.65;5.95;;;22.20;75.90;;;;;;10456571;28;20079;-54
2021/07/15 17:41:41;;;;;;;7.60;5.82;;;22.20;75.80;;;;;;10455674;28;20156;-53
2021/07/15 17:46:41;;;;;;;8.32;6.13;;;22.20;75.70;;;;;;10453577;28;20029;-54
2021/07/15 17:51:44;;;;;;;10.93;6.15;;;22.20;75.80;;;;;;10437452;28;20044;-53
2021/07/15 17:56:45;;;;;;;10.38;7.10;;;22.20;75.80;;;;;;10454698;28;20072;-54
2021/07/15 18:01:46;;;;;;;11.15;6.32;;;22.20;75.80;;;;;;10455127;28;20021;-52
2021/07/15 18:06:47;;;;;;;7.93;6.53;;;22.20;75.70;;;;;;10455277;28;20036;-54
2021/07/15 18:11:49;;;;;;;8.32;5.57;;;22.20;75.80;;;;;;10440996;28;20036;-54
2021/07/15 18:16:50;;;;;;;7.93;6.55;;;22.20;75.80;;;;;;10436748;28;20031;-52
2021/07/15 18:21:51;;;;;;;8.68;6.43;;;22.20;76.40;;;;;;10458863;28;20563;-54
2021/07/15 18:26:52;;;;;;;8.70;6.30;;;22.20;75.80;;;;;;10454811;28;20082;-55
2021/07/15 18:31:52;;;;;;;9.52;6.32;;;22.20;75.80;;;;;;10454785;28;20532;-53
2021/07/15 18:36:53;;;;;;;6.53;5.68;;;22.20;75.80;;;;;;10454621;28;20108;-55
2021/07/15 18:41:54;;;;;;;7.57;5.97;;;22.20;75.90;;;;;;10453352;28;20090;-53
2021/07/15 18:46:57;;;;;;;10.43;7.43;;;22.20;75.80;;;;;;10452576;28;20033;-55
2021/07/15 18:51:59;;;;;;;9.85;6.85;;;22.20;76.30;;;;;;10453791;28;20033;-54
2021/07/15 18:56:59;;;;;;;10.90;6.40;;;22.20;76.50;;;;;;10454735;28;20116;-55
2021/07/15 19:02:00;;;;;;;10.73;7.07;;;22.20;76.60;;;;;;10453849;28;20112;-55
2021/07/15 19:07:01;;;;;;;8.63;7.18;;;22.30;76.80;;;;;;10454382;28;20067;-55
2021/07/15 19:12:02;;;;;;;9.85;7.05;;;22.30;76.80;;;;;;10453875;28;20108;-54
2021/07/15 19:17:03;;;;;;;8.88;6.40;;;22.30;76.90;;;;;;10454159;28;20028;-55
2021/07/15 19:22:07;;;;;;;9.15;6.28;;;22.30;76.90;;;;;;10460660;28;20040;-55
2021/07/15 19:27:08;;;;;;;10.70;6.75;;;22.30;76.80;;;;;;10455851;28;20036;-55
2021/07/15 19:32:08;;;;;;;9.10;6.25;;;22.20;76.70;;;;;;10443220;28;20040;-55
2021/07/15 19:37:09;;;;;;;7.70;6.05;;;22.30;76.60;;;;;;10461205;28;20021;-55
2021/07/15 19:42:09;;;;;;;9.13;6.10;;;22.20;76.50;;;;;;10460750;28;20120;-55
2021/07/15 19:47:10;;;;;;;7.68;6.40;;;22.20;76.40;;;;;;10459756;28;20060;-53
2021/07/15 19:52:11;;;;;;;7.88;6.40;;;22.20;76.40;;;;;;10460482;28;20094;-54
2021/07/15 19:57:12;;;;;;;9.38;6.78;;;22.20;76.30;;;;;;10460307;28;20068;-55
2021/07/15 20:02:13;;;;;;;8.68;6.03;;;22.20;76.30;;;;;;10459287;28;20041;-55
2021/07/15 20:07:14;;;;;;;6.43;5.60;;;22.20;76.20;;;;;;10458953;28;20049;-54
2021/07/15 20:12:14;;;;;;;7.35;5.45;;;22.20;76.40;;;;;;10459484;28;20090;-56
2021/07/15 20:17:15;;;;;;;7.43;6.57;;;22.20;76.50;;;;;;10457694;28;20532;-56
2021/07/15 20:22:16;;;;;;;11.52;6.05;;;22.20;76.40;;;;;;10463898;28;20119;-55
2021/07/15 20:27:16;;;;;;;8.13;6.82;;;22.20;76.30;;;;;;10458460;28;20033;-55
2021/07/15 20:32:17;;;;;;;9.10;5.75;;;22.20;76.20;;;;;;10459189;28;20440;-55
2021/07/15 20:37:18;;;;;;;8.05;6.65;;;22.20;76.10;;;;;;10458832;28;20113;-55
2021/07/15 20:42:19;;;;;;;8.18;5.90;;;22.20;76.10;;;;;;10458089;28;20127;-55
2021/07/15 20:47:19;;;;;;;6.53;5.78;;;22.20;76.00;;;;;;10457821;28;20104;-56
2021/07/15 20:52:20;;;;;;;9.90;6.20;;;22.20;75.90;;;;;;10458495;28;20063;-56
2021/07/15 20:57:21;;;;;;;9.05;5.90;;;22.10;75.80;;;;;;10458033;28;20108;-56
2021/07/15 21:02:25;;;;;;;7.55;5.70;;;22.10;75.70;;;;;;10458345;28;20033;-55
2021/07/15 21:07:30;;;;;;;7.15;6.13;;;22.10;75.70;;;;;;10457738;28;20028;-56
2021/07/15 21:12:32;;;;;;;6.32;5.45;;;22.10;75.60;;;;;;10457527;28;20064;-55
2021/07/15 21:17:34;;;;;;;7.38;6.20;;;22.10;75.50;;;;;;10457736;28;20536;-55
2021/07/15 21:22:35;;;;;;;10.35;6.00;;;22.10;75.40;;;;;;10464368;28;20060;-55
2021/07/15 21:27:36;;;;;;;5.75;4.82;;;22.10;75.40;;;;;;10456903;28;20082;-56
2021/07/15 21:32:37;;;;;;;7.47;5.57;;;22.10;75.30;;;;;;10456478;28;20045;-56
2021/07/15 21:37:38;;;;;;;7.72;5.85;;;22.10;75.10;;;;;;10456606;28;20044;-55
2021/07/15 21:42:38;;;;;;;6.30;5.70;;;22.10;75.10;;;;;;10456390;28;20043;-55
2021/07/15 21:47:39;;;;;;;6.93;6.15;;;22.10;75.10;;;;;;10456283;28;20420;-55
2021/07/15 21:52:40;;;;;;;7.88;5.43;;;22.00;75.10;;;;;;10455903;28;20396;-55
2021/07/15 21:57:41;;;;;;;5.93;5.32;;;22.00;75.00;;;;;;10456074;28;20036;-56
2021/07/15 22:02:42;;;;;;;6.80;5.97;;;22.00;74.90;;;;;;10455235;28;20045;-54
2021/07/15 22:07:43;;;;;;;6.63;5.95;;;22.00;74.80;;;;;;10456064;28;20036;-55
2021/07/15 22:12:43;;;;;;;6.25;5.65;;;22.00;74.80;;;;;;10455732;28;20497;-55
2021/07/15 22:18:05;;;;;;;6.47;5.72;;;22.00;74.70;;;;;;10455717;28;20507;-55
2021/07/15 22:23:13;;;;;;;6.13;5.28;;;22.00;74.80;;;;;;10462349;28;20041;-55
2021/07/15 22:28:14;;;;;;;5.70;4.97;;;22.00;74.70;;;;;;10455619;28;20505;-56
2021/07/15 22:33:15;;;;;;;7.00;5.38;;;22.00;74.70;;;;;;10455332;28;20064;-56
2021/07/15 22:38:19;;;;;;;8.38;6.20;;;22.00;74.60;;;;;;10455127;28;20120;-55
2021/07/15 22:43:24;;;;;;;6.88;5.28;;;22.00;74.60;;;;;;10437359;28;20065;-55
2021/07/15 22:48:24;;;;;;;6.75;5.70;;;22.00;74.60;;;;;;10454538;28;20424;-56
2021/07/15 22:53:25;;;;;;;7.32;5.50;;;22.00;74.60;;;;;;10454702;28;20082;-55
2021/07/15 22:58:26;;;;;;;7.25;5.20;;;22.00;74.50;;;;;;10454641;28;20064;-55
2021/07/15 23:03:27;;;;;;;6.63;4.88;;;22.00;74.50;;;;;;10458987;28;20053;-55
2021/07/15 23:08:27;;;;;;;7.72;5.57;;;22.00;74.40;;;;;;10462614;28;20025;-56
2021/07/15 23:13:28;;;;;;;7.47;5.53;;;21.90;74.40;;;;;;10462176;28;20120;-55
2021/07/15 23:18:29;;;;;;;9.10;5.75;;;22.00;74.50;;;;;;10461831;28;20044;-55
2021/07/15 23:23:29;;;;;;;6.32;5.43;;;21.90;74.50;;;;;;10468426;28;20103;-55
2021/07/15 23:28:30;;;;;;;5.05;4.40;;;21.90;74.30;;;;;;10419907;28;20136;-55
2021/07/15 23:33:31;;;;;;;6.25;4.88;;;22.00;74.40;;;;;;10461741;28;20134;-55
2021/07/15 23:38:31;;;;;;;5.75;5.00;;;21.90;74.40;;;;;;10461137;28;20072;-56
2021/07/15 23:43:32;;;;;;;6.63;5.18;;;21.90;74.30;;;;;;10460916;28;20061;-53
2021/07/15 23:48:33;;;;;;;6.88;5.07;;;21.90;74.30;;;;;;10461124;28;20123;-55
2021/07/15 23:53:33;;;;;;;7.53;5.28;;;21.90;74.20;;;;;;10460569;28;20028;-55
2021/07/15 23:58:34;;;;;;;6.35;5.38;;;21.90;74.20;;;;;;10460644;28;20110;-55
